createdAt,value
2023-04-18T00:01:12.331Z,100932.00
2023-04-18T00:03:45.857Z,100937.34
2023-04-18T00:06:22.210Z,100934.34
2023-04-18T00:08:55.118Z,100931.19
2023-04-18T00:11:27.964Z,100935.81
2023-04-18T00:14:00.758Z,100932.22
2023-04-18T00:16:33.902Z,100938.53
2023-04-18T00:19:08.775Z,100934.16
2023-04-18T00:21:44.756Z,100938.66
2023-04-18T00:24:17.746Z,100938.66
2023-04-18T00:26:50.673Z,100942.25
2023-04-18T00:29:31.717Z,100942.19
2023-04-18T00:32:04.564Z,100947.53
2023-04-18T00:34:37.613Z,100945.78
2023-04-18T00:37:11.999Z,100937.84
2023-04-18T00:39:45.096Z,100941.44
2023-04-18T00:42:17.860Z,100940.56
2023-04-18T00:44:51.583Z,100939.28
2023-04-18T00:47:24.465Z,100938.88
2023-04-18T00:49:57.900Z,100938.06
2023-04-18T00:52:33.796Z,100942.50
2023-04-18T00:55:09.477Z,100938.13
2023-04-18T00:57:43.350Z,100935.50
2023-04-18T01:00:16.787Z,100936.38
2023-04-18T01:02:53.216Z,100937.28
2023-04-18T01:05:27.306Z,100935.63
2023-04-18T01:08:01.998Z,100937.41
2023-04-18T01:10:34.998Z,100939.25
2023-04-18T01:13:12.299Z,100932.19
2023-04-18T01:15:47.547Z,100935.78
2023-04-18T01:18:20.887Z,100937.75
2023-04-18T01:20:57.116Z,100936.13
2023-04-18T01:23:31.507Z,100936.97
2023-04-18T01:26:05.967Z,100937.97
2023-04-18T01:28:38.784Z,100939.97
2023-04-18T01:31:13.814Z,100931.09
2023-04-18T01:33:46.979Z,100931.16
2023-04-18T01:36:22.135Z,100932.09
2023-04-18T01:38:55.036Z,100929.50
2023-04-18T01:41:32.593Z,100933.94
2023-04-18T01:44:06.420Z,100939.16
2023-04-18T01:46:40.205Z,100934.78
2023-04-18T01:49:12.872Z,100937.97
2023-04-18T01:51:47.930Z,100943.66
2023-04-18T01:54:20.804Z,100939.28
2023-04-18T01:56:54.960Z,100931.25
2023-04-18T01:59:28.660Z,100937.44
2023-04-18T02:02:01.608Z,100933.94
2023-04-18T02:04:34.580Z,100933.13
2023-04-18T02:07:07.647Z,100933.22
2023-04-18T02:09:41.327Z,100936.44
2023-04-18T02:12:17.717Z,100933.34
2023-04-18T02:14:53.763Z,100936.09
2023-04-18T02:17:26.624Z,100944.09
2023-04-18T02:20:00.654Z,100935.19
2023-04-18T02:22:33.484Z,100941.41
2023-04-18T02:25:07.619Z,100928.06
2023-04-18T02:27:41.883Z,100932.53
2023-04-18T02:30:15.224Z,100936.13
2023-04-18T02:32:48.106Z,100933.47
2023-04-18T02:35:21.283Z,100930.91
2023-04-18T02:37:54.747Z,100935.28
2023-04-18T02:40:27.552Z,100938.81
2023-04-18T02:43:02.586Z,100936.25
2023-04-18T02:45:35.575Z,100939.81
2023-04-18T02:48:08.605Z,100942.38
2023-04-18T02:50:41.985Z,100937.91
2023-04-18T02:53:14.903Z,100940.53
2023-04-18T02:55:58.331Z,100944.91
2023-04-18T02:58:41.290Z,100940.50
2023-04-18T03:01:34.255Z,100937.38
2023-04-18T03:04:14.259Z,100944.88
2023-04-18T03:06:50.112Z,100937.66
2023-04-18T03:09:24.301Z,100942.06
2023-04-18T03:12:06.552Z,100943.88
2023-04-18T03:14:44.485Z,100934.09
2023-04-18T03:17:19.094Z,100944.72
2023-04-18T03:19:54.746Z,100938.56
2023-04-18T03:22:27.655Z,100944.88
2023-04-18T03:25:05.271Z,100930.66
2023-04-18T03:27:47.975Z,100945.84
2023-04-18T03:30:24.444Z,100939.63
2023-04-18T03:33:02.858Z,100948.44
2023-04-18T03:35:36.082Z,100951.06
2023-04-18T03:38:08.889Z,100949.25
2023-04-18T03:40:44.849Z,100950.06
2023-04-18T03:43:25.156Z,100945.56
2023-04-18T03:46:02.078Z,100953.63
2023-04-18T03:48:37.321Z,100942.00
2023-04-18T03:51:15.126Z,100950.22
2023-04-18T03:53:50.308Z,100950.31
2023-04-18T03:56:24.045Z,100958.41
2023-04-18T03:58:59.231Z,100948.78
2023-04-18T04:01:34.033Z,100952.38
2023-04-18T04:04:09.359Z,100946.16
2023-04-18T04:06:44.471Z,100953.25
2023-04-18T04:09:17.525Z,100947.03
2023-04-18T04:11:51.431Z,100956.91
2023-04-18T04:14:25.252Z,100960.69
2023-04-18T04:17:00.905Z,100963.50
2023-04-18T04:19:34.698Z,100969.84
2023-04-18T04:22:14.912Z,100974.28
2023-04-18T04:24:48.788Z,100966.22
2023-04-18T04:27:26.950Z,100974.13
2023-04-18T04:30:02.604Z,100981.19
2023-04-18T04:32:38.930Z,100970.47
2023-04-18T04:35:11.926Z,100979.34
2023-04-18T04:37:45.206Z,100983.75
2023-04-18T04:40:27.924Z,100977.44
2023-04-18T04:43:28.805Z,100977.28
2023-04-18T04:46:03.970Z,100983.34
2023-04-18T04:48:38.338Z,100979.75
2023-04-18T04:51:11.242Z,100980.56
2023-04-18T04:53:44.224Z,100983.16
2023-04-18T04:56:17.188Z,100981.34
2023-04-18T04:58:50.549Z,100989.41
2023-04-18T05:01:27.623Z,100990.38
2023-04-18T05:04:02.201Z,100992.94
2023-04-18T05:06:35.448Z,100988.41
2023-04-18T05:09:08.370Z,100990.03
2023-04-18T05:11:41.169Z,100997.16
2023-04-18T05:14:14.108Z,100993.59
2023-04-18T05:16:47.583Z,100998.88
2023-04-18T05:19:21.777Z,100997.00
2023-04-18T05:21:54.775Z,100991.50
2023-04-18T05:24:27.664Z,100994.88
2023-04-18T05:27:01.262Z,100992.06
2023-04-18T05:29:34.148Z,100998.09
2023-04-18T05:32:07.671Z,100997.88
2023-04-18T05:34:48.358Z,100994.19
2023-04-18T05:37:22.268Z,100997.72
2023-04-18T05:39:55.099Z,101002.09
2023-04-18T05:42:27.962Z,101004.72
2023-04-18T05:45:01.000Z,100998.41
2023-04-18T05:47:33.967Z,100998.25
2023-04-18T05:50:09.881Z,100998.25
2023-04-18T05:52:42.829Z,101004.47
2023-04-18T05:55:15.643Z,101001.78
2023-04-18T05:57:48.565Z,100998.19
2023-04-18T06:00:21.929Z,101000.91
2023-04-18T06:02:55.226Z,101008.94
2023-04-18T06:05:30.298Z,100999.09
2023-04-18T06:08:03.612Z,101006.31
2023-04-18T06:10:38.860Z,101001.16
2023-04-18T06:13:12.311Z,101011.84
2023-04-18T06:15:45.181Z,101009.16
2023-04-18T06:18:18.064Z,101007.31
2023-04-18T06:20:52.745Z,101008.09
2023-04-18T06:23:25.566Z,101011.50
2023-04-18T06:25:58.847Z,101013.97
2023-04-18T06:28:31.699Z,101015.56
2023-04-18T06:31:04.710Z,101020.81
2023-04-18T06:33:38.641Z,101020.69
2023-04-18T06:36:12.917Z,101024.09
2023-04-18T06:38:45.809Z,101019.38
2023-04-18T06:41:18.613Z,101017.28
2023-04-18T06:44:02.722Z,101014.44
2023-04-18T06:46:36.793Z,101011.66
2023-04-18T06:49:09.796Z,101017.69
2023-04-18T06:51:44.044Z,101018.44
2023-04-18T06:54:17.179Z,101012.03
2023-04-18T06:56:50.055Z,101009.94
2023-04-18T06:59:23.405Z,101021.13
2023-04-18T07:01:56.227Z,101016.28
2023-04-18T07:04:29.254Z,101006.97
2023-04-18T07:07:05.180Z,101016.25
2023-04-18T07:09:38.106Z,101021.97
2023-04-18T07:12:11.104Z,101023.34
2023-04-18T07:14:43.867Z,101026.63
2023-04-18T07:17:16.716Z,101015.78
2023-04-18T07:19:49.549Z,101019.22
2023-04-18T07:22:35.140Z,101016.28
2023-04-18T07:25:08.855Z,101018.50
2023-04-18T07:27:41.719Z,101028.97
2023-04-18T07:30:15.248Z,101012.84
2023-04-18T07:32:48.336Z,101017.34
2023-04-18T07:35:21.714Z,101027.00
2023-04-18T07:37:56.146Z,101023.22
2023-04-18T07:40:29.044Z,101018.47
2023-04-18T07:43:01.865Z,101022.56
2023-04-18T07:45:35.797Z,101028.31
2023-04-18T07:48:08.743Z,101018.19
2023-04-18T07:50:41.564Z,101021.50
2023-04-18T07:53:16.023Z,101023.06
2023-04-18T07:55:48.883Z,101022.72
2023-04-18T07:58:21.853Z,101030.41
2023-04-18T08:00:54.644Z,101024.91
2023-04-18T08:03:28.221Z,101030.09
2023-04-18T08:06:02.400Z,101036.63
2023-04-18T08:08:36.808Z,101036.97
2023-04-18T08:11:09.655Z,101034.28
2023-04-18T08:13:42.554Z,101031.53
2023-04-18T08:16:17.305Z,101032.31
2023-04-18T08:18:50.590Z,101032.09
2023-04-18T08:21:23.440Z,101038.13
2023-04-18T08:23:57.775Z,101035.22
2023-04-18T08:26:30.795Z,101030.53
2023-04-18T08:29:03.791Z,101040.09
2023-04-18T08:31:36.677Z,101039.00
2023-04-18T08:34:09.636Z,101040.50
2023-04-18T08:36:42.457Z,101040.50
2023-04-18T08:39:16.672Z,101039.56
2023-04-18T08:41:59.474Z,101038.31
2023-04-18T08:44:32.835Z,101039.84
2023-04-18T08:47:06.249Z,101034.81
2023-04-18T08:49:39.122Z,101041.78
2023-04-18T08:52:14.218Z,101031.13
2023-04-18T08:54:49.108Z,101028.72
2023-04-18T08:57:27.012Z,101033.91
2023-04-18T09:00:01.572Z,101032.09
2023-04-18T09:02:42.824Z,101029.91
2023-04-18T09:05:19.044Z,101029.69
2023-04-18T09:07:53.268Z,101032.22
2023-04-18T09:10:29.170Z,101021.47
2023-04-18T09:13:04.445Z,101023.81
2023-04-18T09:15:37.508Z,101022.06
2023-04-18T09:18:10.951Z,101020.81
2023-04-18T09:20:44.654Z,101016.91
2023-04-18T09:23:23.443Z,101015.84
2023-04-18T09:25:59.171Z,101017.31
2023-04-18T09:28:37.665Z,101020.28
2023-04-18T09:31:15.305Z,101019.47
2023-04-18T09:33:54.153Z,101026.88
2023-04-18T09:36:28.203Z,101019.22
2023-04-18T09:39:02.063Z,101017.72
2023-04-18T09:41:36.333Z,101016.28
2023-04-18T09:44:14.393Z,101023.41
2023-04-18T09:46:49.451Z,101022.53
2023-04-18T09:49:24.370Z,101020.03
2023-04-18T09:51:57.633Z,101019.06
2023-04-18T09:54:33.976Z,101016.13
2023-04-18T09:57:13.655Z,101013.06
2023-04-18T09:59:52.426Z,101014.59
2023-04-18T10:02:27.785Z,101013.78
2023-04-18T10:05:01.985Z,101009.66
2023-04-18T10:07:35.161Z,101015.09
2023-04-18T10:10:09.123Z,101011.09
2023-04-18T10:12:43.470Z,101013.47
2023-04-18T10:15:17.809Z,101008.47
2023-04-18T10:18:04.345Z,101012.59
2023-04-18T10:20:38.399Z,101015.41
2023-04-18T10:23:36.790Z,101009.81
2023-04-18T10:26:10.510Z,101010.31
2023-04-18T10:28:56.844Z,101008.66
2023-04-18T10:31:30.499Z,101007.63
2023-04-18T10:34:08.144Z,101007.38
2023-04-18T10:37:04.558Z,101010.38
2023-04-18T10:39:58.286Z,100997.47
2023-04-18T10:42:59.428Z,100998.44
2023-04-18T10:45:36.539Z,100995.75
2023-04-18T10:48:24.772Z,100992.94
2023-04-18T10:51:14.962Z,100990.72
2023-04-18T10:53:51.089Z,100987.47
2023-04-18T10:56:26.094Z,100994.22
2023-04-18T10:59:02.509Z,100984.94
2023-04-18T11:01:38.986Z,100988.56
2023-04-18T11:04:14.434Z,100987.22
2023-04-18T11:06:51.599Z,100985.72
2023-04-18T11:09:25.050Z,100978.06
2023-04-18T11:12:04.648Z,100972.25
2023-04-18T11:14:41.456Z,100961.03
2023-04-18T11:17:20.696Z,100965.50
2023-04-18T11:20:01.354Z,100953.25
2023-04-18T11:22:34.349Z,100958.88
2023-04-18T11:25:09.218Z,100948.47
2023-04-18T11:27:44.231Z,100956.41
2023-04-18T11:30:17.202Z,100958.22
2023-04-18T11:32:51.687Z,100949.06
2023-04-18T11:35:24.801Z,100946.38
2023-04-18T11:37:57.673Z,100950.56
2023-04-18T11:40:30.777Z,100949.94
2023-04-18T11:43:04.793Z,100951.84
2023-04-18T11:45:37.637Z,100945.47
2023-04-18T11:48:11.961Z,100941.63
2023-04-18T11:50:44.782Z,100946.69
2023-04-18T11:53:33.466Z,100941.16
2023-04-18T11:56:07.237Z,100942.69
2023-04-18T11:58:40.161Z,100938.75
2023-04-18T12:01:17.818Z,100935.94
2023-04-18T12:04:05.925Z,100938.53
2023-04-18T12:06:48.352Z,100941.34
2023-04-18T12:09:22.737Z,100924.06
2023-04-18T12:11:59.704Z,100930.75
2023-04-18T12:14:32.536Z,100925.50
2023-04-18T12:17:05.392Z,100924.59
2023-04-18T12:19:39.682Z,100928.03
2023-04-18T12:22:16.911Z,100921.75
2023-04-18T12:25:26.187Z,100922.19
2023-04-18T12:28:02.391Z,100923.78
2023-04-18T12:30:37.589Z,100917.59
2023-04-18T12:33:11.186Z,100918.06
2023-04-18T12:35:46.408Z,100911.00
2023-04-18T12:38:22.116Z,100910.16
2023-04-18T12:40:54.991Z,100911.97
2023-04-18T12:43:27.960Z,100903.44
2023-04-18T12:46:01.258Z,100892.56
2023-04-18T12:48:34.219Z,100900.13
2023-04-18T12:51:08.577Z,100894.84
2023-04-18T12:53:41.490Z,100903.78
2023-04-18T12:56:14.458Z,100903.00
2023-04-18T12:58:47.294Z,100911.13
2023-04-18T13:01:20.217Z,100905.59
2023-04-18T13:04:03.987Z,100904.34
2023-04-18T13:06:42.998Z,100904.09
2023-04-18T13:09:16.642Z,100903.19
2023-04-18T13:11:49.709Z,100897.91
2023-04-18T13:14:22.893Z,100891.69
2023-04-18T13:16:58.785Z,100889.75
2023-04-18T13:19:32.663Z,100889.25
2023-04-18T13:22:07.576Z,100883.56
2023-04-18T13:24:40.435Z,100886.56
2023-04-18T13:27:13.451Z,100886.75
2023-04-18T13:29:51.213Z,100882.31
2023-04-18T13:32:40.973Z,100885.00
2023-04-18T13:35:20.793Z,100890.31
2023-04-18T13:37:55.145Z,100874.88
2023-04-18T13:40:39.151Z,100878.56
2023-04-18T13:43:15.539Z,100875.78
2023-04-18T13:45:55.450Z,100873.84
2023-04-18T13:48:28.405Z,100874.59
2023-04-18T13:51:07.166Z,100870.84
2023-04-18T13:53:43.497Z,100869.88
2023-04-18T13:56:16.788Z,100878.75
2023-04-18T13:58:49.833Z,100874.22
2023-04-18T14:01:23.399Z,100874.31
2023-04-18T14:03:56.443Z,100874.13
2023-04-18T14:06:32.748Z,100869.47
2023-04-18T14:09:07.835Z,100868.63
2023-04-18T14:11:40.842Z,100870.38
2023-04-18T14:14:13.925Z,100871.88
2023-04-18T14:16:46.809Z,100870.69
2023-04-18T14:19:19.950Z,100868.66
2023-04-18T14:21:52.914Z,100871.44
2023-04-18T14:24:42.421Z,100858.81
2023-04-18T14:27:15.801Z,100867.00
2023-04-18T14:29:49.531Z,100858.91
2023-04-18T14:32:34.536Z,100859.38
2023-04-18T14:35:11.321Z,100852.72
2023-04-18T14:37:44.782Z,100853.41
2023-04-18T14:40:19.388Z,100851.41
2023-04-18T14:42:52.549Z,100847.44
2023-04-18T14:45:28.312Z,100847.53
2023-04-18T14:48:04.333Z,100843.22
2023-04-18T14:50:38.734Z,100843.31
2023-04-18T14:53:13.646Z,100834.16
2023-04-18T14:55:48.030Z,100840.22
2023-04-18T14:58:21.798Z,100839.06
2023-04-18T15:01:00.754Z,100834.34
2023-04-18T15:03:34.278Z,100837.75
2023-04-18T15:06:08.122Z,100837.41
2023-04-18T15:11:42.247Z,100833.66
2023-04-18T15:14:15.807Z,100833.56
2023-04-18T15:16:50.326Z,100837.22
2023-04-18T15:19:24.596Z,100836.56
2023-04-18T15:21:57.554Z,100836.56
2023-04-18T15:24:30.653Z,100832.03
2023-04-18T15:27:11.347Z,100828.38
2023-04-18T15:29:44.383Z,100825.88
2023-04-18T15:32:18.073Z,100827.91
2023-04-18T15:34:53.951Z,100829.16
2023-04-18T15:37:27.867Z,100827.44
2023-04-18T15:40:06.074Z,100825.78
2023-04-18T15:42:41.590Z,100825.03
2023-04-18T15:45:15.161Z,100829.44
2023-04-18T15:47:47.959Z,100824.25
2023-04-18T15:50:21.113Z,100827.72
2023-04-18T15:52:54.166Z,100825.97
2023-04-18T15:55:27.208Z,100819.72
2023-04-18T15:58:01.586Z,100815.19
2023-04-18T16:00:34.478Z,100821.34
2023-04-18T16:03:09.894Z,100820.38
2023-04-18T16:05:42.997Z,100821.44
2023-04-18T16:08:18.776Z,100819.06
2023-04-18T16:10:53.053Z,100821.16
2023-04-18T16:13:31.382Z,100819.81
2023-04-18T16:16:05.578Z,100817.31
2023-04-18T16:18:38.522Z,100814.03
2023-04-18T16:21:18.667Z,100820.47
2023-04-18T16:23:51.530Z,100808.13
2023-04-18T16:26:24.984Z,100811.06
2023-04-18T16:28:59.213Z,100810.34
2023-04-18T16:31:32.240Z,100810.34
2023-04-18T16:34:08.015Z,100810.63
2023-04-18T16:36:40.974Z,100808.34
2023-04-18T16:39:15.760Z,100811.31
2023-04-18T16:41:48.580Z,100813.38
2023-04-18T16:44:22.807Z,100808.19
2023-04-18T16:46:55.707Z,100803.03
2023-04-18T16:49:28.727Z,100801.28
2023-04-18T16:52:01.846Z,100803.16
2023-04-18T16:54:34.850Z,100803.16
2023-04-18T16:57:07.663Z,100805.94
2023-04-18T16:59:41.966Z,100799.78
2023-04-18T17:02:15.057Z,100799.09
2023-04-18T17:04:48.993Z,100803.81
2023-04-18T17:07:24.620Z,100807.53
2023-04-18T17:10:00.604Z,100803.22
2023-04-18T17:12:33.526Z,100804.16
2023-04-18T17:15:08.846Z,100807.03
2023-04-18T17:17:41.802Z,100808.06
2023-04-18T17:20:15.994Z,100810.09
2023-04-18T17:22:49.019Z,100810.19
2023-04-18T17:25:24.448Z,100806.81
2023-04-18T17:27:57.500Z,100803.44
2023-04-18T17:30:31.770Z,100808.09
2023-04-18T17:33:04.700Z,100806.47
2023-04-18T17:35:37.654Z,100802.13
2023-04-18T17:38:11.495Z,100798.78
2023-04-18T17:40:48.418Z,100802.56
2023-04-18T17:43:21.501Z,100805.34
2023-04-18T17:45:56.935Z,100800.16
2023-04-18T17:48:29.799Z,100806.59
2023-04-18T17:51:02.722Z,100804.09
2023-04-18T17:53:35.719Z,100797.03
2023-04-18T17:56:08.640Z,100804.25
2023-04-18T17:58:41.495Z,100804.50
2023-04-18T18:01:19.889Z,100803.75
2023-04-18T18:03:53.906Z,100814.69
2023-04-18T18:06:27.852Z,100808.44
2023-04-18T18:09:00.667Z,100811.22
2023-04-18T18:11:33.499Z,100812.16
2023-04-18T18:14:06.289Z,100806.00
2023-04-18T18:16:40.912Z,100806.00
2023-04-18T18:19:16.996Z,100804.34
2023-04-18T18:21:52.756Z,100808.16
2023-04-18T18:24:27.148Z,100805.66
2023-04-18T18:27:00.472Z,100808.44
2023-04-18T18:29:36.865Z,100810.34
2023-04-18T18:32:11.112Z,100800.81
2023-04-18T18:34:46.700Z,100804.53
2023-04-18T18:37:19.735Z,100801.16
2023-04-18T18:39:52.756Z,100794.09
2023-04-18T18:42:25.749Z,100805.09
2023-04-18T18:44:58.675Z,100807.97
2023-04-18T18:47:34.262Z,100793.72
2023-04-18T18:50:07.902Z,100797.56
2023-04-18T18:52:43.097Z,100797.72
2023-04-18T18:55:16.465Z,100788.94
2023-04-18T18:57:49.460Z,100787.31
2023-04-18T19:00:22.514Z,100785.56
2023-04-18T19:02:59.122Z,100783.88
2023-04-18T19:05:32.060Z,100791.19
2023-04-18T19:08:06.541Z,100783.19
2023-04-18T19:10:40.958Z,100786.84
2023-04-18T19:13:18.782Z,100777.91
2023-04-18T19:15:51.941Z,100782.50
2023-04-18T19:18:27.990Z,100784.41
2023-04-18T19:21:04.477Z,100783.53
2023-04-18T19:23:37.382Z,100785.44
2023-04-18T19:26:10.825Z,100778.47
2023-04-18T19:28:43.658Z,100776.84
2023-04-18T19:31:16.483Z,100772.66
2023-04-18T19:33:53.208Z,100769.38
2023-04-18T19:36:26.349Z,100772.22
2023-04-18T19:38:59.234Z,100767.81
2023-04-18T19:41:32.078Z,100764.25
2023-04-18T19:44:05.506Z,100772.47
2023-04-18T19:46:38.420Z,100766.31
2023-04-18T19:49:12.911Z,100761.19
2023-04-18T19:51:45.974Z,100763.94
2023-04-18T19:54:21.640Z,100759.72
2023-04-18T19:56:54.864Z,100753.69
2023-04-18T19:59:27.749Z,100753.00
2023-04-18T20:02:03.458Z,100754.97
2023-04-18T20:04:41.721Z,100757.06
2023-04-18T20:07:14.739Z,100755.47
2023-04-18T20:09:47.580Z,100760.13
2023-04-18T20:12:20.968Z,100752.22
2023-04-18T20:14:55.815Z,100756.00
2023-04-18T20:17:30.498Z,100754.44
2023-04-18T20:20:11.461Z,100749.25
2023-04-18T20:22:46.239Z,100739.59
2023-04-18T20:25:19.196Z,100743.34
2023-04-18T20:27:52.002Z,100746.16
2023-04-18T20:30:25.023Z,100741.81
2023-04-18T20:32:57.924Z,100735.66
2023-04-18T20:35:32.125Z,100736.69
2023-04-18T20:38:07.186Z,100744.00
2023-04-18T20:40:40.231Z,100732.47
2023-04-18T20:43:17.303Z,100731.66
2023-04-18T20:45:51.466Z,100736.34
2023-04-18T20:48:24.405Z,100724.09
2023-04-18T20:50:58.582Z,100727.88
2023-04-18T20:53:31.785Z,100722.75
2023-04-18T20:56:07.876Z,100721.31
2023-04-18T20:58:41.827Z,100720.75
2023-04-18T21:01:14.896Z,100728.16
2023-04-18T21:03:49.171Z,100725.78
2023-04-18T21:06:23.463Z,100720.72
2023-04-18T21:08:56.324Z,100721.75
2023-04-18T21:11:29.606Z,100715.66
2023-04-18T21:14:03.814Z,100718.50
2023-04-18T21:16:39.356Z,100715.97
2023-04-18T21:19:12.361Z,100710.69
2023-04-18T21:21:50.798Z,100702.72
2023-04-18T21:24:27.982Z,100707.19
2023-04-18T21:27:00.765Z,100704.50
2023-04-18T21:29:36.451Z,100703.81
2023-04-18T21:32:09.389Z,100703.94
2023-04-18T21:34:42.225Z,100704.91
2023-04-18T21:37:16.610Z,100690.78
2023-04-18T21:39:54.724Z,100695.34
2023-04-18T21:42:30.782Z,100698.16
2023-04-18T21:45:10.317Z,100690.28
2023-04-18T21:47:45.451Z,100686.75
2023-04-18T21:50:19.462Z,100688.53
2023-04-18T21:52:57.339Z,100682.47
2023-04-18T21:55:31.220Z,100686.97
2023-04-18T21:58:06.959Z,100679.78
2023-04-18T22:00:39.947Z,100683.44
2023-04-18T22:03:13.189Z,100677.09
2023-04-18T22:05:47.302Z,100670.97
2023-04-18T22:08:25.858Z,100667.56
2023-04-18T22:11:00.273Z,100670.31
2023-04-18T22:13:33.926Z,100678.44
2023-04-18T22:16:08.588Z,100674.84
2023-04-18T22:18:41.432Z,100671.31
2023-04-18T22:21:14.250Z,100669.34
2023-04-18T22:23:48.678Z,100660.47
2023-04-18T22:26:21.749Z,100662.44
2023-04-18T22:28:54.534Z,100659.00
2023-04-18T22:31:27.539Z,100656.44
2023-04-18T22:34:01.649Z,100648.53
2023-04-18T22:36:34.521Z,100644.25
2023-04-18T22:39:10.098Z,100642.66
2023-04-18T22:41:43.060Z,100648.34
2023-04-18T22:44:16.230Z,100643.13
2023-04-18T22:46:49.540Z,100644.91
2023-04-18T22:49:23.252Z,100644.03
2023-04-18T22:51:55.889Z,100639.25
2023-04-18T22:54:30.049Z,100636.16
2023-04-18T22:57:03.300Z,100637.97
2023-04-18T22:59:36.219Z,100637.97
2023-04-18T23:02:09.317Z,100635.22
2023-04-18T23:04:45.340Z,100629.88
2023-04-18T23:07:18.289Z,100626.22
2023-04-18T23:09:52.512Z,100624.44
2023-04-18T23:12:26.813Z,100616.28
2023-04-18T23:14:59.621Z,100618.88
2023-04-18T23:17:32.435Z,100618.75
2023-04-18T23:20:06.897Z,100611.56
2023-04-18T23:22:39.695Z,100611.50
2023-04-18T23:25:14.061Z,100605.25
2023-04-18T23:27:46.917Z,100604.31
2023-04-18T23:30:19.744Z,100608.81
2023-04-18T23:32:52.644Z,100604.38
2023-04-18T23:35:25.518Z,100593.75
2023-04-18T23:37:58.402Z,100601.06
2023-04-18T23:40:32.769Z,100590.50
2023-04-18T23:43:05.934Z,100589.88
2023-04-18T23:45:38.747Z,100593.56
2023-04-18T23:48:11.633Z,100593.78
2023-04-18T23:50:46.874Z,100591.41
2023-04-18T23:53:20.344Z,100591.53
2023-04-18T23:55:54.696Z,100591.78
2023-04-18T23:58:28.085Z,100588.44
